Metar z pełnej godziny Komunikat METAR ze strony awiacja.imgw.pl Metar G00 EPGD METAR EPGD 172100Z 31003KT 5000 BR NSC 10/08 Q1021 =